PWSweather.com
Personal Weather Stations
Station Observations
KNJOAKLA6
Oakland, NJ 07436

Oakland, NJ 07436

Lat: 41.041, Lon: -74.231

Elevation: 280

Station Type: Davis VP 2

http://stratacolorado.com/oaknjwx/

Latest ConditionsUpdated 9:30:00 PM EDT Friday, Aug 22, 2014
Currently Today's Max Today's Min Today's Average
Temperature 66.2°F19.0°C 73.1°F22.8°C 64.8°F18.2°C 67.4°F19.7°C
Dew Point 61.6°F16.4°C 67.3°F19.6°C 61.1°F16.2°C 64.4°F18.0°C
Winds Calm Calm 2.0 mph NNE3.2 kmh NNE - 0.1 mph 0.2 kmh
Wind Gusts -- 9.0 mph14.5 kmh - -
Humidity 85% 97% 77% 91%
Pressure 30.03 in1016.9 mb 30.03 in1016.9 mb 29.97 in1014.9 mb -
Precipitation - 0.07 in1.8 mm - -
Hour Temp Dew Point Humidity Winds Wind Gusts Pressure Precip Precip Rate Daily Precip Total
09:30 PM 66.2°F19.0°C 61.6°F16.4°C 85% Calm Calm -- 30.03 in1016.9 mb 0.00 in0.0 mm 0.00 in/hr0.0 mm/hr 0.07 in1.8 mm
09:20 PM 66.3°F19.1°C 61.3°F16.3°C 84% Calm Calm -- 30.02 in1016.6 mb 0.00 in0.0 mm 0.00 in/hr0.0 mm/hr 0.07 in1.8 mm
09:10 PM 66.5°F19.2°C 61.5°F16.4°C 84% Calm Calm -- 30.03 in1016.9 mb 0.00 in0.0 mm 0.00 in/hr0.0 mm/hr 0.07 in1.8 mm
09:00 PM 66.6°F19.2°C 61.3°F16.3°C 83% Calm Calm 1.0 mph1.6 kmh 30.03 in1016.9 mb 0.00 in0.0 mm 0.00 in/hr0.0 mm/hr 0.07 in1.8 mm
08:50 PM 66.8°F19.3°C 61.1°F16.2°C 82% Calm Calm -- 30.02 in1016.6 mb 0.00 in0.0 mm 0.00 in/hr0.0 mm/hr 0.07 in1.8 mm
08:40 PM 67.1°F19.5°C 61.4°F16.3°C 82% Calm Calm -- 30.02 in1016.6 mb 0.00 in0.0 mm 0.00 in/hr0.0 mm/hr 0.07 in1.8 mm
08:30 PM 67.3°F19.6°C 61.3°F16.3°C 81% Calm Calm -- 30.02 in1016.6 mb 0.00 in0.0 mm 0.00 in/hr0.0 mm/hr 0.07 in1.8 mm
08:20 PM 67.6°F19.8°C 61.6°F16.4°C 81% Calm Calm -- 30.02 in1016.6 mb 0.00 in0.0 mm 0.00 in/hr0.0 mm/hr 0.07 in1.8 mm
08:10 PM 67.8°F19.9°C 61.8°F16.6°C 81% Calm Calm -- 30.01 in1016.3 mb 0.00 in0.0 mm 0.00 in/hr0.0 mm/hr 0.07 in1.8 mm
08:00 PM 68.0°F20.0°C 62.0°F16.7°C 81% Calm Calm -- 30.01 in1016.3 mb 0.00 in0.0 mm 0.00 in/hr0.0 mm/hr 0.07 in1.8 mm
07:50 PM 68.1°F20.1°C 62.1°F16.7°C 81% Calm Calm 1.0 mph1.6 kmh 30.00 in1015.9 mb 0.00 in0.0 mm 0.00 in/hr0.0 mm/hr 0.07 in1.8 mm
07:40 PM 68.4°F20.2°C 62.3°F16.8°C 81% Calm Calm 1.0 mph1.6 kmh 30.00 in1015.9 mb 0.00 in0.0 mm 0.00 in/hr0.0 mm/hr 0.07 in1.8 mm
07:30 PM 68.5°F20.3°C 62.1°F16.7°C 80% Calm Calm 1.0 mph1.6 kmh 30.00 in1015.9 mb 0.00 in0.0 mm 0.00 in/hr0.0 mm/hr 0.07 in1.8 mm
07:20 PM 68.6°F20.3°C 61.8°F16.6°C 79% Calm Calm 2.0 mph3.2 kmh 30.00 in1015.9 mb 0.00 in0.0 mm 0.00 in/hr0.0 mm/hr 0.07 in1.8 mm
07:10 PM 68.8°F20.4°C 61.7°F16.5°C 78% Calm Calm 2.0 mph3.2 kmh 30.00 in1015.9 mb 0.00 in0.0 mm 0.00 in/hr0.0 mm/hr 0.07 in1.8 mm
07:00 PM 69.0°F20.6°C 61.9°F16.6°C 78% Calm Calm 1.0 mph1.6 kmh 30.00 in1015.9 mb 0.00 in0.0 mm 0.00 in/hr0.0 mm/hr 0.07 in1.8 mm
06:50 PM 69.1°F20.6°C 61.6°F16.4°C 77% 2.0 mph NNE3.2 kmh NNE 7.0 mph11.3 kmh 30.00 in1015.9 mb 0.00 in0.0 mm 0.00 in/hr0.0 mm/hr 0.07 in1.8 mm
06:40 PM 69.3°F20.7°C 62.2°F16.8°C 78% Calm Calm 3.0 mph4.8 kmh 30.00 in1015.9 mb 0.00 in0.0 mm 0.00 in/hr0.0 mm/hr 0.07 in1.8 mm
06:30 PM 69.4°F20.8°C 61.9°F16.6°C 77% Calm Calm 6.0 mph9.7 kmh 30.00 in1015.9 mb 0.00 in0.0 mm 0.00 in/hr0.0 mm/hr 0.07 in1.8 mm
06:20 PM 69.5°F20.8°C 62.3°F16.8°C 78% Calm Calm 7.0 mph11.3 kmh 30.00 in1015.9 mb 0.00 in0.0 mm 0.00 in/hr0.0 mm/hr 0.07 in1.8 mm
06:10 PM 69.7°F20.9°C 62.5°F16.9°C 78% 1.0 mph E1.6 kmh E 9.0 mph14.5 kmh 30.00 in1015.9 mb 0.00 in0.0 mm 0.00 in/hr0.0 mm/hr 0.07 in1.8 mm
06:00 PM 70.0°F21.1°C 63.6°F17.6°C 80% 2.0 mph SE3.2 kmh SE 7.0 mph11.3 kmh 29.99 in1015.6 mb 0.01 in0.3 mm 0.00 in/hr0.0 mm/hr 0.07 in1.8 mm
05:50 PM 70.7°F21.5°C 66.0°F18.9°C 85% Calm Calm 1.0 mph1.6 kmh 29.99 in1015.6 mb 0.01 in0.3 mm 0.00 in/hr0.0 mm/hr 0.07 in1.8 mm
05:40 PM 71.0°F21.7°C 66.3°F19.1°C 85% Calm Calm -- 29.99 in1015.6 mb 0.01 in0.3 mm 0.00 in/hr0.0 mm/hr 0.07 in1.8 mm
05:30 PM 71.1°F21.7°C 66.0°F18.9°C 84% Calm Calm 1.0 mph1.6 kmh 29.99 in1015.6 mb 0.01 in0.3 mm 0.00 in/hr0.0 mm/hr 0.07 in1.8 mm
05:20 PM 71.3°F21.8°C 66.2°F19.0°C 84% Calm Calm 1.0 mph1.6 kmh 29.98 in1015.2 mb 0.01 in0.3 mm 0.00 in/hr0.0 mm/hr 0.07 in1.8 mm
05:10 PM 71.4°F21.9°C 66.3°F19.1°C 84% Calm Calm 1.0 mph1.6 kmh 29.98 in1015.2 mb 0.01 in0.3 mm 0.06 in/hr1.5 mm/hr 0.07 in1.8 mm
05:00 PM 71.5°F21.9°C 66.8°F19.3°C 85% Calm Calm 1.0 mph1.6 kmh 29.98 in1015.2 mb 0.00 in0.0 mm 0.00 in/hr0.0 mm/hr 0.06 in1.5 mm
04:50 PM 71.5°F21.9°C 66.8°F19.3°C 85% Calm Calm 1.0 mph1.6 kmh 29.98 in1015.2 mb 0.00 in0.0 mm 0.00 in/hr0.0 mm/hr 0.06 in1.5 mm
04:40 PM 71.5°F21.9°C 67.1°F19.5°C 86% Calm Calm 1.0 mph1.6 kmh 29.98 in1015.2 mb 0.00 in0.0 mm 0.00 in/hr0.0 mm/hr 0.06 in1.5 mm
04:30 PM 71.3°F21.8°C 66.6°F19.2°C 85% Calm Calm 1.0 mph1.6 kmh 29.98 in1015.2 mb 0.00 in0.0 mm 0.00 in/hr0.0 mm/hr 0.06 in1.5 mm
04:20 PM 71.3°F21.8°C 66.6°F19.2°C 85% Calm Calm 1.0 mph1.6 kmh 29.98 in1015.2 mb 0.00 in0.0 mm 0.00 in/hr0.0 mm/hr 0.06 in1.5 mm
04:10 PM 71.3°F21.8°C 66.6°F19.2°C 85% Calm Calm 2.0 mph3.2 kmh 29.98 in1015.2 mb 0.00 in0.0 mm 0.00 in/hr0.0 mm/hr 0.06 in1.5 mm
04:00 PM 71.5°F21.9°C 66.4°F19.1°C 84% Calm Calm 1.0 mph1.6 kmh 29.98 in1015.2 mb 0.00 in0.0 mm 0.00 in/hr0.0 mm/hr 0.06 in1.5 mm
03:50 PM 71.7°F22.1°C 66.3°F19.1°C 83% Calm Calm 3.0 mph4.8 kmh 29.98 in1015.2 mb 0.00 in0.0 mm 0.00 in/hr0.0 mm/hr 0.06 in1.5 mm
03:40 PM 72.0°F22.2°C 66.6°F19.2°C 83% Calm Calm 2.0 mph3.2 kmh 29.98 in1015.2 mb 0.00 in0.0 mm 0.00 in/hr0.0 mm/hr 0.06 in1.5 mm
03:30 PM 72.4°F22.4°C 66.9°F19.4°C 83% Calm Calm 1.0 mph1.6 kmh 29.99 in1015.6 mb 0.00 in0.0 mm 0.00 in/hr0.0 mm/hr 0.06 in1.5 mm
03:20 PM 72.8°F22.7°C 66.6°F19.2°C 81% Calm Calm 4.0 mph6.4 kmh 29.99 in1015.6 mb 0.00 in0.0 mm 0.00 in/hr0.0 mm/hr 0.06 in1.5 mm
03:10 PM 73.1°F22.8°C 66.9°F19.4°C 81% Calm Calm 2.0 mph3.2 kmh 29.99 in1015.6 mb 0.00 in0.0 mm 0.00 in/hr0.0 mm/hr 0.06 in1.5 mm
03:00 PM 73.0°F22.8°C 66.1°F18.9°C 79% Calm Calm 1.0 mph1.6 kmh 29.99 in1015.6 mb 0.00 in0.0 mm 0.00 in/hr0.0 mm/hr 0.06 in1.5 mm
02:50 PM 73.0°F22.8°C 65.4°F18.6°C 77% Calm Calm 6.0 mph9.7 kmh 29.98 in1015.2 mb 0.00 in0.0 mm 0.00 in/hr0.0 mm/hr 0.06 in1.5 mm
02:40 PM 73.0°F22.8°C 66.1°F18.9°C 79% Calm Calm 5.0 mph8.0 kmh 29.98 in1015.2 mb 0.00 in0.0 mm 0.00 in/hr0.0 mm/hr 0.06 in1.5 mm
02:30 PM 72.4°F22.4°C 67.3°F19.6°C 84% Calm Calm 2.0 mph3.2 kmh 29.98 in1015.2 mb 0.00 in0.0 mm 0.00 in/hr0.0 mm/hr 0.06 in1.5 mm
02:20 PM 71.7°F22.1°C 66.6°F19.2°C 84% 1.0 mph NE1.6 kmh NE 4.0 mph6.4 kmh 29.99 in1015.6 mb 0.00 in0.0 mm 0.00 in/hr0.0 mm/hr 0.06 in1.5 mm
02:10 PM 71.4°F21.9°C 67.0°F19.4°C 86% Calm Calm 2.0 mph3.2 kmh 29.99 in1015.6 mb 0.00 in0.0 mm 0.00 in/hr0.0 mm/hr 0.06 in1.5 mm
02:00 PM 71.2°F21.8°C 66.1°F18.9°C 84% Calm Calm 2.0 mph3.2 kmh 29.99 in1015.6 mb 0.00 in0.0 mm 0.00 in/hr0.0 mm/hr 0.06 in1.5 mm
01:50 PM 71.2°F21.8°C 66.5°F19.2°C 85% Calm Calm 1.0 mph1.6 kmh 30.00 in1015.9 mb 0.00 in0.0 mm 0.00 in/hr0.0 mm/hr 0.06 in1.5 mm
01:40 PM 71.2°F21.8°C 66.1°F18.9°C 84% Calm Calm 1.0 mph1.6 kmh 30.00 in1015.9 mb 0.00 in0.0 mm 0.00 in/hr0.0 mm/hr 0.06 in1.5 mm
01:30 PM 71.3°F21.8°C 66.6°F19.2°C 85% Calm Calm 3.0 mph4.8 kmh 30.00 in1015.9 mb 0.00 in0.0 mm 0.00 in/hr0.0 mm/hr 0.06 in1.5 mm
01:20 PM 71.3°F21.8°C 67.2°F19.6°C 87% Calm Calm 2.0 mph3.2 kmh 30.00 in1015.9 mb 0.00 in0.0 mm 0.00 in/hr0.0 mm/hr 0.06 in1.5 mm
01:10 PM 70.7°F21.5°C 66.6°F19.2°C 87% Calm Calm 5.0 mph8.0 kmh 30.00 in1015.9 mb 0.00 in0.0 mm 0.00 in/hr0.0 mm/hr 0.06 in1.5 mm
01:00 PM 70.2°F21.2°C 66.8°F19.3°C 89% 1.0 mph NNE1.6 kmh NNE 4.0 mph6.4 kmh 30.00 in1015.9 mb 0.00 in0.0 mm 0.00 in/hr0.0 mm/hr 0.06 in1.5 mm
12:50 PM 69.2°F20.7°C 66.1°F18.9°C 90% 1.0 mph NE1.6 kmh NE 3.0 mph4.8 kmh 30.01 in1016.3 mb 0.00 in0.0 mm 0.00 in/hr0.0 mm/hr 0.06 in1.5 mm
12:40 PM 68.6°F20.3°C 66.5°F19.2°C 93% Calm Calm 3.0 mph4.8 kmh 30.01 in1016.3 mb 0.00 in0.0 mm 0.00 in/hr0.0 mm/hr 0.06 in1.5 mm
12:30 PM 68.0°F20.0°C 66.2°F19.0°C 94% Calm Calm 2.0 mph3.2 kmh 30.01 in1016.3 mb 0.00 in0.0 mm 0.00 in/hr0.0 mm/hr 0.06 in1.5 mm
12:20 PM 67.2°F19.6°C 65.4°F18.6°C 94% Calm Calm 2.0 mph3.2 kmh 30.02 in1016.6 mb 0.00 in0.0 mm 0.00 in/hr0.0 mm/hr 0.06 in1.5 mm
12:10 PM 66.8°F19.3°C 65.3°F18.5°C 95% 1.0 mph N1.6 kmh N 9.0 mph14.5 kmh 30.01 in1016.3 mb 0.00 in0.0 mm 0.00 in/hr0.0 mm/hr 0.06 in1.5 mm
12:00 PM 66.2°F19.0°C 64.7°F18.2°C 95% Calm Calm 3.0 mph4.8 kmh 30.01 in1016.3 mb 0.00 in0.0 mm 0.00 in/hr0.0 mm/hr 0.06 in1.5 mm
11:50 AM 65.9°F18.8°C 64.4°F18.0°C 95% Calm Calm 3.0 mph4.8 kmh 30.02 in1016.6 mb 0.00 in0.0 mm 0.00 in/hr0.0 mm/hr 0.06 in1.5 mm
11:40 AM 65.6°F18.7°C 64.4°F18.0°C 96% Calm Calm 2.0 mph3.2 kmh 30.01 in1016.3 mb 0.00 in0.0 mm 0.00 in/hr0.0 mm/hr 0.06 in1.5 mm
11:30 AM 65.5°F18.6°C 64.3°F17.9°C 96% Calm Calm 2.0 mph3.2 kmh 30.02 in1016.6 mb 0.00 in0.0 mm 0.00 in/hr0.0 mm/hr 0.06 in1.5 mm
11:20 AM 65.7°F18.7°C 64.5°F18.1°C 96% Calm Calm 1.0 mph1.6 kmh 30.02 in1016.6 mb 0.00 in0.0 mm 0.00 in/hr0.0 mm/hr 0.06 in1.5 mm
11:10 AM 65.6°F18.7°C 64.4°F18.0°C 96% Calm Calm -- 30.02 in1016.6 mb 0.00 in0.0 mm 0.00 in/hr0.0 mm/hr 0.06 in1.5 mm
11:00 AM 65.4°F18.6°C 64.2°F17.9°C 96% Calm Calm 2.0 mph3.2 kmh 30.02 in1016.6 mb 0.00 in0.0 mm 0.00 in/hr0.0 mm/hr 0.06 in1.5 mm
10:50 AM 65.6°F18.7°C 64.7°F18.2°C 97% Calm Calm 2.0 mph3.2 kmh 30.03 in1016.9 mb 0.00 in0.0 mm 0.00 in/hr0.0 mm/hr 0.06 in1.5 mm
10:40 AM 65.7°F18.7°C 64.8°F18.2°C 97% Calm Calm 3.0 mph4.8 kmh 30.03 in1016.9 mb 0.00 in0.0 mm 0.00 in/hr0.0 mm/hr 0.06 in1.5 mm
10:30 AM 66.0°F18.9°C 65.1°F18.4°C 97% 1.0 mph NE1.6 kmh NE 3.0 mph4.8 kmh 30.02 in1016.6 mb 0.00 in0.0 mm 0.00 in/hr0.0 mm/hr 0.06 in1.5 mm
10:20 AM 66.0°F18.9°C 65.1°F18.4°C 97% Calm Calm 4.0 mph6.4 kmh 30.02 in1016.6 mb 0.00 in0.0 mm 0.00 in/hr0.0 mm/hr 0.06 in1.5 mm
10:10 AM 66.1°F18.9°C 65.2°F18.4°C 97% Calm Calm 1.0 mph1.6 kmh 30.02 in1016.6 mb 0.00 in0.0 mm 0.00 in/hr0.0 mm/hr 0.06 in1.5 mm
10:00 AM 66.0°F18.9°C 65.1°F18.4°C 97% Calm Calm 2.0 mph3.2 kmh 30.02 in1016.6 mb 0.00 in0.0 mm 0.00 in/hr0.0 mm/hr 0.06 in1.5 mm
09:50 AM 66.3°F19.1°C 65.4°F18.6°C 97% Calm Calm 5.0 mph8.0 kmh 30.02 in1016.6 mb 0.00 in0.0 mm 0.00 in/hr0.0 mm/hr 0.06 in1.5 mm
09:40 AM 66.4°F19.1°C 65.5°F18.6°C 97% 1.0 mph NNE1.6 kmh NNE 3.0 mph4.8 kmh 30.01 in1016.3 mb 0.00 in0.0 mm 0.00 in/hr0.0 mm/hr 0.06 in1.5 mm
09:30 AM 66.6°F19.2°C 65.7°F18.7°C 97% Calm Calm 2.0 mph3.2 kmh 30.01 in1016.3 mb 0.00 in0.0 mm 0.00 in/hr0.0 mm/hr 0.06 in1.5 mm
09:20 AM 66.7°F19.3°C 65.8°F18.8°C 97% Calm Calm 2.0 mph3.2 kmh 30.01 in1016.3 mb 0.00 in0.0 mm 0.00 in/hr0.0 mm/hr 0.06 in1.5 mm
09:10 AM 66.6°F19.2°C 65.7°F18.7°C 97% Calm Calm 2.0 mph3.2 kmh 30.00 in1015.9 mb 0.00 in0.0 mm 0.00 in/hr0.0 mm/hr 0.06 in1.5 mm
09:00 AM 66.6°F19.2°C 65.7°F18.7°C 97% Calm Calm 3.0 mph4.8 kmh 30.00 in1015.9 mb 0.00 in0.0 mm 0.00 in/hr0.0 mm/hr 0.06 in1.5 mm
08:50 AM 66.5°F19.2°C 65.6°F18.7°C 97% Calm Calm 2.0 mph3.2 kmh 30.00 in1015.9 mb 0.00 in0.0 mm 0.00 in/hr0.0 mm/hr 0.06 in1.5 mm
08:40 AM 66.5°F19.2°C 65.6°F18.7°C 97% Calm Calm 2.0 mph3.2 kmh 30.00 in1015.9 mb 0.00 in0.0 mm 0.00 in/hr0.0 mm/hr 0.06 in1.5 mm
08:30 AM 66.2°F19.0°C 65.3°F18.5°C 97% Calm Calm 3.0 mph4.8 kmh 29.99 in1015.6 mb 0.00 in0.0 mm 0.00 in/hr0.0 mm/hr 0.06 in1.5 mm
08:20 AM 66.0°F18.9°C 65.1°F18.4°C 97% Calm Calm -- 29.99 in1015.6 mb 0.00 in0.0 mm 0.00 in/hr0.0 mm/hr 0.06 in1.5 mm
08:10 AM 65.7°F18.7°C 64.8°F18.2°C 97% Calm Calm -- 29.99 in1015.6 mb 0.00 in0.0 mm 0.00 in/hr0.0 mm/hr 0.06 in1.5 mm
08:00 AM 65.5°F18.6°C 64.6°F18.1°C 97% Calm Calm -- 30.00 in1015.9 mb 0.00 in0.0 mm 0.00 in/hr0.0 mm/hr 0.06 in1.5 mm
07:50 AM 65.3°F18.5°C 64.4°F18.0°C 97% Calm Calm -- 29.99 in1015.6 mb 0.00 in0.0 mm 0.00 in/hr0.0 mm/hr 0.06 in1.5 mm
07:40 AM 65.2°F18.4°C 64.3°F17.9°C 97% Calm Calm -- 29.99 in1015.6 mb 0.00 in0.0 mm 0.00 in/hr0.0 mm/hr 0.06 in1.5 mm
07:30 AM 65.1°F18.4°C 64.2°F17.9°C 97% Calm Calm 1.0 mph1.6 kmh 29.99 in1015.6 mb 0.00 in0.0 mm 0.00 in/hr0.0 mm/hr 0.06 in1.5 mm
07:20 AM 65.0°F18.3°C 64.1°F17.8°C 97% Calm Calm -- 29.99 in1015.6 mb 0.00 in0.0 mm 0.00 in/hr0.0 mm/hr 0.06 in1.5 mm
07:10 AM 64.9°F18.3°C 64.0°F17.8°C 97% Calm Calm 1.0 mph1.6 kmh 29.98 in1015.2 mb 0.00 in0.0 mm 0.00 in/hr0.0 mm/hr 0.06 in1.5 mm
07:00 AM 64.8°F18.2°C 63.9°F17.7°C 97% Calm Calm -- 29.99 in1015.6 mb 0.00 in0.0 mm 0.00 in/hr0.0 mm/hr 0.06 in1.5 mm
06:50 AM 64.8°F18.2°C 63.9°F17.7°C 97% Calm Calm -- 29.98 in1015.2 mb 0.00 in0.0 mm 0.00 in/hr0.0 mm/hr 0.06 in1.5 mm
06:40 AM 64.8°F18.2°C 63.9°F17.7°C 97% Calm Calm -- 29.98 in1015.2 mb 0.00 in0.0 mm 0.00 in/hr0.0 mm/hr 0.06 in1.5 mm
06:30 AM 64.8°F18.2°C 63.9°F17.7°C 97% Calm Calm -- 29.98 in1015.2 mb 0.00 in0.0 mm 0.00 in/hr0.0 mm/hr 0.06 in1.5 mm
06:20 AM 64.8°F18.2°C 63.9°F17.7°C 97% Calm Calm 1.0 mph1.6 kmh 29.98 in1015.2 mb 0.00 in0.0 mm 0.00 in/hr0.0 mm/hr 0.06 in1.5 mm
06:10 AM 64.9°F18.3°C 64.0°F17.8°C 97% Calm Calm -- 29.98 in1015.2 mb 0.00 in0.0 mm 0.00 in/hr0.0 mm/hr 0.06 in1.5 mm
06:00 AM 64.9°F18.3°C 64.0°F17.8°C 97% Calm Calm -- 29.97 in1014.9 mb 0.00 in0.0 mm 0.00 in/hr0.0 mm/hr 0.06 in1.5 mm
05:50 AM 65.0°F18.3°C 64.1°F17.8°C 97% Calm Calm -- 29.97 in1014.9 mb 0.00 in0.0 mm 0.00 in/hr0.0 mm/hr 0.06 in1.5 mm
05:40 AM 65.0°F18.3°C 64.1°F17.8°C 97% Calm Calm -- 29.97 in1014.9 mb 0.00 in0.0 mm 0.00 in/hr0.0 mm/hr 0.06 in1.5 mm
05:30 AM 65.1°F18.4°C 64.2°F17.9°C 97% Calm Calm -- 29.97 in1014.9 mb 0.00 in0.0 mm 0.00 in/hr0.0 mm/hr 0.06 in1.5 mm
05:20 AM 65.1°F18.4°C 64.2°F17.9°C 97% Calm Calm -- 29.97 in1014.9 mb 0.00 in0.0 mm 0.00 in/hr0.0 mm/hr 0.06 in1.5 mm
05:10 AM 65.1°F18.4°C 64.2°F17.9°C 97% Calm Calm -- 29.98 in1015.2 mb 0.00 in0.0 mm 0.00 in/hr0.0 mm/hr 0.06 in1.5 mm
05:00 AM 65.1°F18.4°C 64.2°F17.9°C 97% Calm Calm -- 29.98 in1015.2 mb 0.00 in0.0 mm 0.00 in/hr0.0 mm/hr 0.06 in1.5 mm
04:50 AM 65.1°F18.4°C 64.2°F17.9°C 97% Calm Calm -- 29.98 in1015.2 mb 0.00 in0.0 mm 0.00 in/hr0.0 mm/hr 0.06 in1.5 mm
04:40 AM 65.1°F18.4°C 64.2°F17.9°C 97% Calm Calm -- 29.98 in1015.2 mb 0.00 in0.0 mm 0.00 in/hr0.0 mm/hr 0.06 in1.5 mm
04:30 AM 65.0°F18.3°C 63.8°F17.7°C 96% Calm Calm -- 29.98 in1015.2 mb 0.00 in0.0 mm 0.00 in/hr0.0 mm/hr 0.06 in1.5 mm
04:20 AM 65.0°F18.3°C 63.8°F17.7°C 96% Calm Calm -- 29.98 in1015.2 mb 0.00 in0.0 mm 0.00 in/hr0.0 mm/hr 0.06 in1.5 mm
04:10 AM 65.0°F18.3°C 63.8°F17.7°C 96% Calm Calm -- 29.98 in1015.2 mb 0.00 in0.0 mm 0.00 in/hr0.0 mm/hr 0.06 in1.5 mm
04:00 AM 64.9°F18.3°C 63.7°F17.6°C 96% Calm Calm -- 29.98 in1015.2 mb 0.00 in0.0 mm 0.00 in/hr0.0 mm/hr 0.06 in1.5 mm
03:50 AM 64.9°F18.3°C 63.7°F17.6°C 96% Calm Calm -- 29.98 in1015.2 mb 0.00 in0.0 mm 0.00 in/hr0.0 mm/hr 0.06 in1.5 mm
03:40 AM 64.8°F18.2°C 63.6°F17.6°C 96% Calm Calm 1.0 mph1.6 kmh 29.98 in1015.2 mb 0.00 in0.0 mm 0.00 in/hr0.0 mm/hr 0.06 in1.5 mm
03:30 AM 64.8°F18.2°C 63.6°F17.6°C 96% Calm Calm -- 29.98 in1015.2 mb 0.00 in0.0 mm 0.00 in/hr0.0 mm/hr 0.06 in1.5 mm
03:20 AM 64.9°F18.3°C 63.7°F17.6°C 96% Calm Calm -- 29.98 in1015.2 mb 0.00 in0.0 mm 0.00 in/hr0.0 mm/hr 0.06 in1.5 mm
03:10 AM 64.9°F18.3°C 63.7°F17.6°C 96% Calm Calm -- 29.98 in1015.2 mb 0.00 in0.0 mm 0.00 in/hr0.0 mm/hr 0.06 in1.5 mm
03:00 AM 65.0°F18.3°C 63.8°F17.7°C 96% Calm Calm -- 29.98 in1015.2 mb 0.00 in0.0 mm 0.00 in/hr0.0 mm/hr 0.06 in1.5 mm
02:50 AM 65.1°F18.4°C 63.9°F17.7°C 96% Calm Calm -- 29.98 in1015.2 mb 0.00 in0.0 mm 0.00 in/hr0.0 mm/hr 0.06 in1.5 mm
02:40 AM 65.1°F18.4°C 63.9°F17.7°C 96% Calm Calm -- 29.99 in1015.6 mb 0.00 in0.0 mm 0.00 in/hr0.0 mm/hr 0.06 in1.5 mm
02:30 AM 65.1°F18.4°C 63.9°F17.7°C 96% Calm Calm -- 29.99 in1015.6 mb 0.00 in0.0 mm 0.00 in/hr0.0 mm/hr 0.06 in1.5 mm
02:20 AM 65.1°F18.4°C 63.9°F17.7°C 96% Calm Calm -- 29.98 in1015.2 mb 0.00 in0.0 mm 0.00 in/hr0.0 mm/hr 0.06 in1.5 mm
02:10 AM 65.0°F18.3°C 63.8°F17.7°C 96% Calm Calm -- 29.98 in1015.2 mb 0.00 in0.0 mm 0.00 in/hr0.0 mm/hr 0.06 in1.5 mm
02:00 AM 65.0°F18.3°C 63.8°F17.7°C 96% Calm Calm -- 29.98 in1015.2 mb 0.00 in0.0 mm 0.00 in/hr0.0 mm/hr 0.06 in1.5 mm
01:50 AM 65.0°F18.3°C 63.8°F17.7°C 96% Calm Calm -- 29.99 in1015.6 mb 0.00 in0.0 mm 0.00 in/hr0.0 mm/hr 0.06 in1.5 mm
01:40 AM 65.0°F18.3°C 63.8°F17.7°C 96% Calm Calm -- 29.98 in1015.2 mb 0.01 in0.3 mm 0.00 in/hr0.0 mm/hr 0.06 in1.5 mm
01:30 AM 65.0°F18.3°C 63.8°F17.7°C 96% Calm Calm 1.0 mph1.6 kmh 29.98 in1015.2 mb 0.02 in0.5 mm 0.00 in/hr0.0 mm/hr 0.06 in1.5 mm
01:20 AM 65.1°F18.4°C 63.9°F17.7°C 96% Calm Calm -- 29.98 in1015.2 mb 0.04 in1.0 mm 0.00 in/hr0.0 mm/hr 0.06 in1.5 mm
01:11 AM 65.1°F18.4°C 63.6°F17.6°C 95% Calm Calm 1.0 mph1.6 kmh 29.98 in1015.2 mb 0.05 in1.3 mm 0.00 in/hr0.0 mm/hr 0.06 in1.5 mm
01:00 AM 65.1°F18.4°C 63.6°F17.6°C 95% Calm Calm -- 29.98 in1015.2 mb 0.06 in1.5 mm 0.00 in/hr0.0 mm/hr 0.06 in1.5 mm
12:50 AM 65.0°F18.3°C 63.5°F17.5°C 95% Calm Calm 1.0 mph1.6 kmh 29.99 in1015.6 mb 0.06 in1.5 mm 0.06 in/hr1.5 mm/hr 0.06 in1.5 mm
12:40 AM 64.9°F18.3°C 63.4°F17.4°C 95% Calm Calm -- 30.00 in1015.9 mb 0.05 in1.3 mm 0.12 in/hr3.0 mm/hr 0.05 in1.3 mm
12:30 AM 64.8°F18.2°C 63.3°F17.4°C 95% Calm Calm -- 29.99 in1015.6 mb 0.03 in0.8 mm 0.12 in/hr3.0 mm/hr 0.03 in0.8 mm
12:20 AM 64.9°F18.3°C 63.4°F17.4°C 95% Calm Calm -- 29.99 in1015.6 mb 0.01 in0.3 mm 0.00 in/hr0.0 mm/hr 0.01 in0.3 mm
12:10 AM 64.9°F18.3°C 63.1°F17.3°C 94% Calm Calm -- 30.00 in1015.9 mb 0.01 in0.3 mm 0.06 in/hr1.5 mm/hr 0.01 in0.3 mm
12:00 AM 64.9°F18.3°C 63.1°F17.3°C 94% Calm Calm -- 30.01 in1016.3 mb 0.00 in0.0 mm 0.00 in/hr0.0 mm/hr 0.31 in7.9 mm